sensor_id;sensor_type;location;lat;lon;timestamp;P1;durP1;ratioP1;P2;durP2;ratioP2
37983;SDS011;64625;50.882;4.376;2023-05-17T00:00:20;11.75;;;3.08;;
37983;SDS011;64625;50.882;4.376;2023-05-17T00:02:46;12.43;;;2.97;;
37983;SDS011;64625;50.882;4.376;2023-05-17T00:05:12;14.88;;;4.38;;
37983;SDS011;64625;50.882;4.376;2023-05-17T00:07:37;11.23;;;3.58;;
37983;SDS011;64625;50.882;4.376;2023-05-17T00:10:03;22.73;;;3.45;;
37983;SDS011;64625;50.882;4.376;2023-05-17T00:12:30;12.02;;;2.50;;
37983;SDS011;64625;50.882;4.376;2023-05-17T00:14:56;14.02;;;2.85;;
37983;SDS011;64625;50.882;4.376;2023-05-17T00:17:22;10.95;;;2.53;;
37983;SDS011;64625;50.882;4.376;2023-05-17T00:19:47;16.00;;;2.60;;
37983;SDS011;64625;50.882;4.376;2023-05-17T00:22:13;14.15;;;3.00;;
37983;SDS011;64625;50.882;4.376;2023-05-17T00:24:39;15.50;;;5.60;;
37983;SDS011;64625;50.882;4.376;2023-05-17T00:27:05;14.00;;;3.53;;
37983;SDS011;64625;50.882;4.376;2023-05-17T00:29:30;11.50;;;3.30;;
37983;SDS011;64625;50.882;4.376;2023-05-17T00:31:56;14.38;;;3.45;;
37983;SDS011;64625;50.882;4.376;2023-05-17T00:34:22;17.35;;;4.47;;
37983;SDS011;64625;50.882;4.376;2023-05-17T00:36:48;8.15;;;2.85;;
37983;SDS011;64625;50.882;4.376;2023-05-17T00:39:13;14.50;;;3.95;;
37983;SDS011;64625;50.882;4.376;2023-05-17T00:41:39;7.47;;;3.30;;
37983;SDS011;64625;50.882;4.376;2023-05-17T00:44:05;23.50;;;4.18;;
37983;SDS011;64625;50.882;4.376;2023-05-17T00:46:30;21.00;;;4.13;;
37983;SDS011;64625;50.882;4.376;2023-05-17T00:48:57;13.02;;;4.32;;
37983;SDS011;64625;50.882;4.376;2023-05-17T00:51:26;19.20;;;4.38;;
37983;SDS011;64625;50.882;4.376;2023-05-17T00:53:53;21.52;;;4.85;;
37983;SDS011;64625;50.882;4.376;2023-05-17T00:56:19;14.07;;;2.97;;
37983;SDS011;64625;50.882;4.376;2023-05-17T00:58:45;21.63;;;4.75;;
37983;SDS011;64625;50.882;4.376;2023-05-17T01:01:12;16.83;;;4.93;;
37983;SDS011;64625;50.882;4.376;2023-05-17T01:03:38;16.48;;;5.82;;
37983;SDS011;64625;50.882;4.376;2023-05-17T01:06:04;17.33;;;4.32;;
37983;SDS011;64625;50.882;4.376;2023-05-17T01:08:30;12.68;;;4.72;;
37983;SDS011;64625;50.882;4.376;2023-05-17T01:13:48;18.83;;;5.90;;
37983;SDS011;64625;50.882;4.376;2023-05-17T01:16:33;17.48;;;3.95;;
37983;SDS011;64625;50.882;4.376;2023-05-17T01:27:49;15.50;;;4.47;;
37983;SDS011;64625;50.882;4.376;2023-05-17T01:30:18;16.90;;;4.68;;
37983;SDS011;64625;50.882;4.376;2023-05-17T01:32:45;12.80;;;4.57;;
37983;SDS011;64625;50.882;4.376;2023-05-17T01:35:11;18.88;;;4.00;;
37983;SDS011;64625;50.882;4.376;2023-05-17T01:37:37;20.13;;;4.10;;
37983;SDS011;64625;50.882;4.376;2023-05-17T01:40:04;17.08;;;5.22;;
37983;SDS011;64625;50.882;4.376;2023-05-17T01:42:33;19.15;;;5.75;;
37983;SDS011;64625;50.882;4.376;2023-05-17T01:48:38;14.05;;;3.90;;
37983;SDS011;64625;50.882;4.376;2023-05-17T01:51:08;19.40;;;5.88;;
37983;SDS011;64625;50.882;4.376;2023-05-17T01:53:47;25.85;;;6.50;;
37983;SDS011;64625;50.882;4.376;2023-05-17T01:56:24;15.43;;;5.22;;
37983;SDS011;64625;50.882;4.376;2023-05-17T01:58:53;15.05;;;4.78;;
37983;SDS011;64625;50.882;4.376;2023-05-17T02:01:23;11.70;;;4.57;;
37983;SDS011;64625;50.882;4.376;2023-05-17T02:03:52;14.35;;;5.65;;
37983;SDS011;64625;50.882;4.376;2023-05-17T02:06:21;12.18;;;4.90;;
37983;SDS011;64625;50.882;4.376;2023-05-17T02:08:47;14.20;;;5.32;;
37983;SDS011;64625;50.882;4.376;2023-05-17T02:11:13;10.73;;;5.22;;
37983;SDS011;64625;50.882;4.376;2023-05-17T02:13:38;24.38;;;5.53;;
37983;SDS011;64625;50.882;4.376;2023-05-17T02:16:04;19.23;;;5.80;;
37983;SDS011;64625;50.882;4.376;2023-05-17T02:18:30;18.05;;;5.82;;
37983;SDS011;64625;50.882;4.376;2023-05-17T02:21:01;20.35;;;5.35;;
37983;SDS011;64625;50.882;4.376;2023-05-17T02:23:28;19.33;;;5.65;;
37983;SDS011;64625;50.882;4.376;2023-05-17T02:25:53;22.75;;;7.38;;
37983;SDS011;64625;50.882;4.376;2023-05-17T02:28:19;13.10;;;5.40;;
37983;SDS011;64625;50.882;4.376;2023-05-17T02:30:45;19.05;;;7.82;;
37983;SDS011;64625;50.882;4.376;2023-05-17T02:33:11;27.17;;;7.38;;
37983;SDS011;64625;50.882;4.376;2023-05-17T02:35:37;21.65;;;6.18;;
37983;SDS011;64625;50.882;4.376;2023-05-17T02:38:02;14.00;;;6.00;;
37983;SDS011;64625;50.882;4.376;2023-05-17T02:40:28;19.38;;;7.65;;
37983;SDS011;64625;50.882;4.376;2023-05-17T02:42:54;20.02;;;9.30;;
37983;SDS011;64625;50.882;4.376;2023-05-17T02:45:20;16.70;;;6.65;;
37983;SDS011;64625;50.882;4.376;2023-05-17T02:47:45;14.88;;;6.05;;
37983;SDS011;64625;50.882;4.376;2023-05-17T02:50:11;24.05;;;6.22;;
37983;SDS011;64625;50.882;4.376;2023-05-17T02:52:37;19.95;;;5.78;;
37983;SDS011;64625;50.882;4.376;2023-05-17T02:55:03;12.18;;;5.72;;
37983;SDS011;64625;50.882;4.376;2023-05-17T02:57:29;26.25;;;7.20;;
37983;SDS011;64625;50.882;4.376;2023-05-17T02:59:54;32.80;;;6.85;;
37983;SDS011;64625;50.882;4.376;2023-05-17T03:02:20;15.63;;;6.00;;
37983;SDS011;64625;50.882;4.376;2023-05-17T03:04:46;20.38;;;6.88;;
37983;SDS011;64625;50.882;4.376;2023-05-17T03:07:11;25.10;;;7.22;;
37983;SDS011;64625;50.882;4.376;2023-05-17T03:09:37;18.65;;;6.70;;
37983;SDS011;64625;50.882;4.376;2023-05-17T03:12:03;29.23;;;8.82;;
37983;SDS011;64625;50.882;4.376;2023-05-17T03:14:30;18.35;;;6.20;;
37983;SDS011;64625;50.882;4.376;2023-05-17T03:16:56;27.25;;;7.93;;
37983;SDS011;64625;50.882;4.376;2023-05-17T03:19:21;21.80;;;7.57;;
37983;SDS011;64625;50.882;4.376;2023-05-17T03:21:47;21.88;;;8.07;;
37983;SDS011;64625;50.882;4.376;2023-05-17T03:24:13;23.88;;;7.45;;
37983;SDS011;64625;50.882;4.376;2023-05-17T03:26:39;35.85;;;7.78;;
37983;SDS011;64625;50.882;4.376;2023-05-17T03:29:05;28.10;;;6.60;;
37983;SDS011;64625;50.882;4.376;2023-05-17T03:31:31;19.65;;;6.35;;
37983;SDS011;64625;50.882;4.376;2023-05-17T03:33:56;12.73;;;6.75;;
37983;SDS011;64625;50.882;4.376;2023-05-17T03:36:22;19.75;;;7.68;;
37983;SDS011;64625;50.882;4.376;2023-05-17T03:38:48;20.58;;;7.32;;
37983;SDS011;64625;50.882;4.376;2023-05-17T03:41:14;26.48;;;7.30;;
37983;SDS011;64625;50.882;4.376;2023-05-17T03:43:40;20.33;;;6.53;;
37983;SDS011;64625;50.882;4.376;2023-05-17T03:46:05;15.48;;;6.47;;
37983;SDS011;64625;50.882;4.376;2023-05-17T03:48:31;25.50;;;7.55;;
37983;SDS011;64625;50.882;4.376;2023-05-17T03:50:57;34.47;;;7.88;;
37983;SDS011;64625;50.882;4.376;2023-05-17T03:53:23;31.40;;;7.15;;
37983;SDS011;64625;50.882;4.376;2023-05-17T03:55:50;35.67;;;8.10;;
37983;SDS011;64625;50.882;4.376;2023-05-17T03:58:16;22.05;;;7.72;;
37983;SDS011;64625;50.882;4.376;2023-05-17T04:00:42;25.85;;;9.52;;
37983;SDS011;64625;50.882;4.376;2023-05-17T04:03:08;21.05;;;9.48;;
37983;SDS011;64625;50.882;4.376;2023-05-17T04:05:34;23.65;;;7.60;;
37983;SDS011;64625;50.882;4.376;2023-05-17T04:07:59;29.60;;;9.15;;
37983;SDS011;64625;50.882;4.376;2023-05-17T04:10:29;26.98;;;8.10;;
37983;SDS011;64625;50.882;4.376;2023-05-17T04:12:54;23.35;;;8.35;;
37983;SDS011;64625;50.882;4.376;2023-05-17T04:15:21;28.10;;;9.27;;
37983;SDS011;64625;50.882;4.376;2023-05-17T04:17:47;31.42;;;9.98;;
37983;SDS011;64625;50.882;4.376;2023-05-17T04:20:12;34.35;;;8.80;;
37983;SDS011;64625;50.882;4.376;2023-05-17T04:22:38;27.85;;;8.45;;
37983;SDS011;64625;50.882;4.376;2023-05-17T04:25:04;21.38;;;8.35;;
37983;SDS011;64625;50.882;4.376;2023-05-17T04:27:31;39.03;;;7.97;;
37983;SDS011;64625;50.882;4.376;2023-05-17T04:29:56;28.50;;;9.52;;
37983;SDS011;64625;50.882;4.376;2023-05-17T04:32:22;41.30;;;10.18;;
37983;SDS011;64625;50.882;4.376;2023-05-17T04:34:48;26.85;;;9.20;;
37983;SDS011;64625;50.882;4.376;2023-05-17T04:37:14;35.05;;;9.27;;
37983;SDS011;64625;50.882;4.376;2023-05-17T04:39:40;28.63;;;8.82;;
37983;SDS011;64625;50.882;4.376;2023-05-17T04:42:06;30.23;;;9.18;;
37983;SDS011;64625;50.882;4.376;2023-05-17T04:44:33;27.38;;;9.15;;
37983;SDS011;64625;50.882;4.376;2023-05-17T04:46:59;29.25;;;8.15;;
37983;SDS011;64625;50.882;4.376;2023-05-17T04:49:24;27.70;;;9.48;;
37983;SDS011;64625;50.882;4.376;2023-05-17T04:51:50;31.20;;;9.13;;
37983;SDS011;64625;50.882;4.376;2023-05-17T04:54:16;18.63;;;7.57;;
37983;SDS011;64625;50.882;4.376;2023-05-17T04:56:42;20.90;;;8.23;;
37983;SDS011;64625;50.882;4.376;2023-05-17T04:59:08;25.55;;;8.07;;
37983;SDS011;64625;50.882;4.376;2023-05-17T05:01:34;35.83;;;7.70;;
37983;SDS011;64625;50.882;4.376;2023-05-17T05:03:59;19.45;;;7.95;;
37983;SDS011;64625;50.882;4.376;2023-05-17T05:06:31;26.08;;;9.63;;
37983;SDS011;64625;50.882;4.376;2023-05-17T05:08:58;22.15;;;8.27;;
37983;SDS011;64625;50.882;4.376;2023-05-17T05:11:28;27.92;;;8.65;;
37983;SDS011;64625;50.882;4.376;2023-05-17T05:13:55;25.15;;;8.80;;
37983;SDS011;64625;50.882;4.376;2023-05-17T05:16:21;20.23;;;8.05;;
37983;SDS011;64625;50.882;4.376;2023-05-17T05:18:47;22.80;;;7.20;;
37983;SDS011;64625;50.882;4.376;2023-05-17T05:21:13;32.05;;;8.55;;
37983;SDS011;64625;50.882;4.376;2023-05-17T05:23:39;13.52;;;6.22;;
37983;SDS011;64625;50.882;4.376;2023-05-17T05:26:05;21.75;;;8.05;;
37983;SDS011;64625;50.882;4.376;2023-05-17T05:28:31;31.00;;;8.93;;
37983;SDS011;64625;50.882;4.376;2023-05-17T05:30:59;20.83;;;8.50;;
37983;SDS011;64625;50.882;4.376;2023-05-17T05:33:26;24.13;;;6.32;;
37983;SDS011;64625;50.882;4.376;2023-05-17T05:35:52;26.77;;;7.57;;
37983;SDS011;64625;50.882;4.376;2023-05-17T05:38:17;28.73;;;7.43;;
37983;SDS011;64625;50.882;4.376;2023-05-17T05:40:46;23.73;;;7.32;;
37983;SDS011;64625;50.882;4.376;2023-05-17T05:43:12;18.95;;;6.60;;
37983;SDS011;64625;50.882;4.376;2023-05-17T05:45:39;19.00;;;7.95;;
37983;SDS011;64625;50.882;4.376;2023-05-17T05:48:11;25.55;;;6.70;;
37983;SDS011;64625;50.882;4.376;2023-05-17T05:50:40;28.63;;;8.30;;
37983;SDS011;64625;50.882;4.376;2023-05-17T05:53:09;22.92;;;7.68;;
37983;SDS011;64625;50.882;4.376;2023-05-17T05:55:39;17.30;;;6.80;;
37983;SDS011;64625;50.882;4.376;2023-05-17T05:58:06;21.58;;;6.80;;
37983;SDS011;64625;50.882;4.376;2023-05-17T06:00:32;19.27;;;7.05;;
37983;SDS011;64625;50.882;4.376;2023-05-17T06:02:58;24.27;;;6.95;;
37983;SDS011;64625;50.882;4.376;2023-05-17T06:05:25;22.27;;;6.65;;
37983;SDS011;64625;50.882;4.376;2023-05-17T06:07:51;25.45;;;6.25;;
37983;SDS011;64625;50.882;4.376;2023-05-17T06:10:17;30.83;;;6.78;;
37983;SDS011;64625;50.882;4.376;2023-05-17T06:12:42;28.17;;;8.65;;
37983;SDS011;64625;50.882;4.376;2023-05-17T06:15:08;28.23;;;7.22;;
37983;SDS011;64625;50.882;4.376;2023-05-17T06:17:35;25.23;;;5.80;;
37983;SDS011;64625;50.882;4.376;2023-05-17T06:20:04;15.00;;;6.40;;
37983;SDS011;64625;50.882;4.376;2023-05-17T06:22:30;22.80;;;6.80;;
37983;SDS011;64625;50.882;4.376;2023-05-17T06:24:56;23.27;;;6.25;;
37983;SDS011;64625;50.882;4.376;2023-05-17T06:27:22;25.48;;;7.32;;
37983;SDS011;64625;50.882;4.376;2023-05-17T06:29:48;27.35;;;6.22;;
37983;SDS011;64625;50.882;4.376;2023-05-17T06:32:15;29.50;;;6.80;;
37983;SDS011;64625;50.882;4.376;2023-05-17T06:34:40;23.60;;;6.13;;
37983;SDS011;64625;50.882;4.376;2023-05-17T06:37:06;21.48;;;7.15;;
37983;SDS011;64625;50.882;4.376;2023-05-17T06:39:32;25.33;;;6.72;;
37983;SDS011;64625;50.882;4.376;2023-05-17T06:41:58;23.30;;;6.35;;
37983;SDS011;64625;50.882;4.376;2023-05-17T06:44:24;16.77;;;5.97;;
37983;SDS011;64625;50.882;4.376;2023-05-17T06:46:50;18.77;;;6.28;;
37983;SDS011;64625;50.882;4.376;2023-05-17T06:49:15;27.88;;;7.32;;
37983;SDS011;64625;50.882;4.376;2023-05-17T06:51:42;27.52;;;7.15;;
37983;SDS011;64625;50.882;4.376;2023-05-17T06:54:07;25.10;;;6.10;;
37983;SDS011;64625;50.882;4.376;2023-05-17T06:56:36;32.78;;;6.57;;
37983;SDS011;64625;50.882;4.376;2023-05-17T06:59:02;22.52;;;7.07;;
37983;SDS011;64625;50.882;4.376;2023-05-17T07:01:28;18.73;;;6.20;;
37983;SDS011;64625;50.882;4.376;2023-05-17T07:03:54;26.77;;;6.60;;
37983;SDS011;64625;50.882;4.376;2023-05-17T07:06:20;27.88;;;7.20;;
37983;SDS011;64625;50.882;4.376;2023-05-17T07:08:46;28.17;;;7.88;;
37983;SDS011;64625;50.882;4.376;2023-05-17T07:11:12;34.88;;;4.93;;
37983;SDS011;64625;50.882;4.376;2023-05-17T07:13:38;24.08;;;6.75;;
37983;SDS011;64625;50.882;4.376;2023-05-17T07:16:05;17.67;;;4.57;;
37983;SDS011;64625;50.882;4.376;2023-05-17T07:18:32;18.98;;;4.80;;
37983;SDS011;64625;50.882;4.376;2023-05-17T07:20:58;19.58;;;5.35;;
37983;SDS011;64625;50.882;4.376;2023-05-17T07:23:25;26.90;;;5.70;;
37983;SDS011;64625;50.882;4.376;2023-05-17T07:25:51;21.60;;;5.70;;
37983;SDS011;64625;50.882;4.376;2023-05-17T07:28:17;19.13;;;5.85;;
37983;SDS011;64625;50.882;4.376;2023-05-17T07:30:42;25.70;;;7.95;;
37983;SDS011;64625;50.882;4.376;2023-05-17T07:33:11;21.45;;;7.32;;
37983;SDS011;64625;50.882;4.376;2023-05-17T07:35:37;18.70;;;6.43;;
37983;SDS011;64625;50.882;4.376;2023-05-17T07:38:03;26.52;;;6.88;;
37983;SDS011;64625;50.882;4.376;2023-05-17T07:40:29;23.00;;;6.00;;
37983;SDS011;64625;50.882;4.376;2023-05-17T07:42:55;17.15;;;7.45;;
37983;SDS011;64625;50.882;4.376;2023-05-17T07:45:20;25.05;;;6.75;;
37983;SDS011;64625;50.882;4.376;2023-05-17T07:47:46;27.17;;;6.50;;
37983;SDS011;64625;50.882;4.376;2023-05-17T07:50:12;13.10;;;5.97;;
37983;SDS011;64625;50.882;4.376;2023-05-17T07:52:38;34.05;;;6.68;;
37983;SDS011;64625;50.882;4.376;2023-05-17T07:55:04;16.67;;;5.82;;
37983;SDS011;64625;50.882;4.376;2023-05-17T07:57:30;24.08;;;7.13;;
37983;SDS011;64625;50.882;4.376;2023-05-17T07:59:56;25.20;;;7.80;;
37983;SDS011;64625;50.882;4.376;2023-05-17T08:02:26;18.65;;;9.02;;
37983;SDS011;64625;50.882;4.376;2023-05-17T08:04:52;21.48;;;6.88;;
37983;SDS011;64625;50.882;4.376;2023-05-17T08:07:18;15.55;;;6.00;;
37983;SDS011;64625;50.882;4.376;2023-05-17T08:09:44;19.95;;;6.10;;
37983;SDS011;64625;50.882;4.376;2023-05-17T08:12:09;15.98;;;5.30;;
37983;SDS011;64625;50.882;4.376;2023-05-17T08:14:35;27.17;;;6.07;;
37983;SDS011;64625;50.882;4.376;2023-05-17T08:17:01;17.63;;;5.70;;
37983;SDS011;64625;50.882;4.376;2023-05-17T08:19:27;19.48;;;6.20;;
37983;SDS011;64625;50.882;4.376;2023-05-17T08:21:53;22.45;;;5.43;;
37983;SDS011;64625;50.882;4.376;2023-05-17T08:24:19;17.70;;;5.43;;
37983;SDS011;64625;50.882;4.376;2023-05-17T08:26:45;21.98;;;7.25;;
37983;SDS011;64625;50.882;4.376;2023-05-17T08:29:11;18.35;;;5.82;;
37983;SDS011;64625;50.882;4.376;2023-05-17T08:31:37;20.73;;;5.28;;
37983;SDS011;64625;50.882;4.376;2023-05-17T08:34:02;15.13;;;4.90;;
37983;SDS011;64625;50.882;4.376;2023-05-17T08:36:29;11.73;;;4.13;;
37983;SDS011;64625;50.882;4.376;2023-05-17T08:38:55;16.80;;;5.40;;
37983;SDS011;64625;50.882;4.376;2023-05-17T08:41:20;14.20;;;5.03;;
37983;SDS011;64625;50.882;4.376;2023-05-17T08:43:49;21.17;;;5.80;;
37983;SDS011;64625;50.882;4.376;2023-05-17T08:46:17;21.60;;;4.70;;
37983;SDS011;64625;50.882;4.376;2023-05-17T08:48:48;14.10;;;5.78;;
37983;SDS011;64625;50.882;4.376;2023-05-17T08:51:16;17.45;;;4.72;;
37983;SDS011;64625;50.882;4.376;2023-05-17T08:53:43;13.43;;;4.85;;
37983;SDS011;64625;50.882;4.376;2023-05-17T08:56:11;21.85;;;4.72;;
37983;SDS011;64625;50.882;4.376;2023-05-17T08:58:40;11.63;;;4.00;;
37983;SDS011;64625;50.882;4.376;2023-05-17T09:01:07;12.27;;;4.10;;
37983;SDS011;64625;50.882;4.376;2023-05-17T09:03:34;13.98;;;4.05;;
37983;SDS011;64625;50.882;4.376;2023-05-17T09:06:04;14.40;;;3.50;;
37983;SDS011;64625;50.882;4.376;2023-05-17T09:08:30;18.33;;;3.90;;
37983;SDS011;64625;50.882;4.376;2023-05-17T09:10:56;16.75;;;4.35;;
37983;SDS011;64625;50.882;4.376;2023-05-17T09:13:23;10.77;;;3.20;;
37983;SDS011;64625;50.882;4.376;2023-05-17T09:15:50;15.30;;;4.47;;
37983;SDS011;64625;50.882;4.376;2023-05-17T09:18:16;16.20;;;4.15;;
37983;SDS011;64625;50.882;4.376;2023-05-17T09:20:46;12.45;;;3.90;;
37983;SDS011;64625;50.882;4.376;2023-05-17T09:23:17;16.88;;;3.67;;
37983;SDS011;64625;50.882;4.376;2023-05-17T09:25:46;15.65;;;3.58;;
37983;SDS011;64625;50.882;4.376;2023-05-17T09:28:12;16.58;;;3.70;;
37983;SDS011;64625;50.882;4.376;2023-05-17T09:30:38;14.13;;;3.25;;
37983;SDS011;64625;50.882;4.376;2023-05-17T09:33:06;26.92;;;4.55;;
37983;SDS011;64625;50.882;4.376;2023-05-17T09:35:36;15.30;;;3.67;;
37983;SDS011;64625;50.882;4.376;2023-05-17T09:38:04;7.78;;;3.13;;
37983;SDS011;64625;50.882;4.376;2023-05-17T09:40:43;13.95;;;2.90;;
37983;SDS011;64625;50.882;4.376;2023-05-17T09:43:13;14.70;;;2.83;;
37983;SDS011;64625;50.882;4.376;2023-05-17T09:45:41;14.00;;;3.03;;
37983;SDS011;64625;50.882;4.376;2023-05-17T09:48:13;13.10;;;3.80;;
37983;SDS011;64625;50.882;4.376;2023-05-17T09:50:48;12.65;;;3.67;;
37983;SDS011;64625;50.882;4.376;2023-05-17T09:53:21;7.75;;;2.67;;
37983;SDS011;64625;50.882;4.376;2023-05-17T09:55:52;15.73;;;2.45;;
37983;SDS011;64625;50.882;4.376;2023-05-17T09:58:25;7.38;;;2.50;;
37983;SDS011;64625;50.882;4.376;2023-05-17T10:00:53;9.45;;;2.58;;
37983;SDS011;64625;50.882;4.376;2023-05-17T10:03:24;8.68;;;3.10;;
37983;SDS011;64625;50.882;4.376;2023-05-17T10:05:51;10.75;;;2.53;;
37983;SDS011;64625;50.882;4.376;2023-05-17T10:08:20;13.82;;;3.33;;
37983;SDS011;64625;50.882;4.376;2023-05-17T10:10:47;10.52;;;2.58;;
37983;SDS011;64625;50.882;4.376;2023-05-17T10:13:20;11.57;;;2.75;;
37983;SDS011;64625;50.882;4.376;2023-05-17T10:15:49;13.95;;;2.20;;
37983;SDS011;64625;50.882;4.376;2023-05-17T10:18:16;12.35;;;3.15;;
37983;SDS011;64625;50.882;4.376;2023-05-17T10:20:42;10.82;;;2.70;;
37983;SDS011;64625;50.882;4.376;2023-05-17T10:23:08;14.52;;;3.13;;
37983;SDS011;64625;50.882;4.376;2023-05-17T10:25:36;13.25;;;3.00;;
37983;SDS011;64625;50.882;4.376;2023-05-17T10:28:03;11.27;;;2.75;;
37983;SDS011;64625;50.882;4.376;2023-05-17T10:30:34;11.70;;;2.42;;
37983;SDS011;64625;50.882;4.376;2023-05-17T10:33:00;15.73;;;3.00;;
37983;SDS011;64625;50.882;4.376;2023-05-17T10:35:27;10.80;;;3.05;;
37983;SDS011;64625;50.882;4.376;2023-05-17T10:37:54;17.63;;;2.85;;
37983;SDS011;64625;50.882;4.376;2023-05-17T10:40:20;16.85;;;2.30;;
37983;SDS011;64625;50.882;4.376;2023-05-17T10:42:51;7.80;;;2.67;;
37983;SDS011;64625;50.882;4.376;2023-05-17T10:45:19;11.07;;;2.83;;
37983;SDS011;64625;50.882;4.376;2023-05-17T10:47:53;12.80;;;2.65;;
37983;SDS011;64625;50.882;4.376;2023-05-17T10:50:22;6.57;;;2.20;;
37983;SDS011;64625;50.882;4.376;2023-05-17T10:52:51;9.18;;;2.90;;
37983;SDS011;64625;50.882;4.376;2023-05-17T10:55:23;16.77;;;2.10;;
37983;SDS011;64625;50.882;4.376;2023-05-17T11:00:49;21.48;;;2.38;;
37983;SDS011;64625;50.882;4.376;2023-05-17T11:08:45;8.82;;;2.38;;
37983;SDS011;64625;50.882;4.376;2023-05-17T11:11:33;13.75;;;3.20;;
37983;SDS011;64625;50.882;4.376;2023-05-17T11:14:03;6.53;;;2.35;;
37983;SDS011;64625;50.882;4.376;2023-05-17T11:16:33;20.75;;;2.70;;
37983;SDS011;64625;50.882;4.376;2023-05-17T11:19:07;8.67;;;2.13;;
37983;SDS011;64625;50.882;4.376;2023-05-17T11:21:34;8.25;;;2.65;;
37983;SDS011;64625;50.882;4.376;2023-05-17T11:24:00;12.48;;;2.28;;
37983;SDS011;64625;50.882;4.376;2023-05-17T11:26:36;16.00;;;2.45;;
37983;SDS011;64625;50.882;4.376;2023-05-17T11:29:05;11.75;;;1.67;;
37983;SDS011;64625;50.882;4.376;2023-05-17T11:31:33;9.05;;;2.30;;
37983;SDS011;64625;50.882;4.376;2023-05-17T11:34:03;8.65;;;2.28;;
37983;SDS011;64625;50.882;4.376;2023-05-17T11:36:29;10.40;;;2.00;;
37983;SDS011;64625;50.882;4.376;2023-05-17T11:39:09;7.38;;;2.33;;
37983;SDS011;64625;50.882;4.376;2023-05-17T11:41:39;11.98;;;2.13;;
37983;SDS011;64625;50.882;4.376;2023-05-17T11:44:20;10.57;;;2.28;;
37983;SDS011;64625;50.882;4.376;2023-05-17T11:46:51;6.10;;;1.58;;
37983;SDS011;64625;50.882;4.376;2023-05-17T11:49:24;13.52;;;2.42;;
37983;SDS011;64625;50.882;4.376;2023-05-17T11:51:51;7.05;;;2.08;;
37983;SDS011;64625;50.882;4.376;2023-05-17T11:54:20;9.77;;;2.28;;
37983;SDS011;64625;50.882;4.376;2023-05-17T11:56:47;9.45;;;2.30;;
37983;SDS011;64625;50.882;4.376;2023-05-17T11:59:18;10.95;;;1.67;;
37983;SDS011;64625;50.882;4.376;2023-05-17T12:01:45;8.98;;;3.25;;
37983;SDS011;64625;50.882;4.376;2023-05-17T12:04:11;10.90;;;2.38;;
37983;SDS011;64625;50.882;4.376;2023-05-17T12:06:38;9.02;;;2.80;;
37983;SDS011;64625;50.882;4.376;2023-05-17T12:09:06;20.25;;;2.65;;
37983;SDS011;64625;50.882;4.376;2023-05-17T12:11:35;12.18;;;2.67;;
37983;SDS011;64625;50.882;4.376;2023-05-17T12:14:03;11.73;;;2.50;;
37983;SDS011;64625;50.882;4.376;2023-05-17T12:16:34;9.50;;;2.00;;
37983;SDS011;64625;50.882;4.376;2023-05-17T12:19:01;8.48;;;2.10;;
37983;SDS011;64625;50.882;4.376;2023-05-17T12:21:27;11.57;;;2.28;;
37983;SDS011;64625;50.882;4.376;2023-05-17T12:23:53;7.38;;;2.33;;
37983;SDS011;64625;50.882;4.376;2023-05-17T12:26:19;10.70;;;2.05;;
37983;SDS011;64625;50.882;4.376;2023-05-17T12:28:57;6.95;;;1.88;;
37983;SDS011;64625;50.882;4.376;2023-05-17T12:34:04;8.73;;;3.10;;
37983;SDS011;64625;50.882;4.376;2023-05-17T12:36:30;9.10;;;2.38;;
37983;SDS011;64625;50.882;4.376;2023-05-17T12:38:58;5.97;;;2.22;;
37983;SDS011;64625;50.882;4.376;2023-05-17T12:41:25;8.00;;;2.15;;
37983;SDS011;64625;50.882;4.376;2023-05-17T12:43:51;6.53;;;2.38;;
37983;SDS011;64625;50.882;4.376;2023-05-17T12:46:18;7.20;;;1.75;;
37983;SDS011;64625;50.882;4.376;2023-05-17T12:48:49;8.90;;;3.05;;
37983;SDS011;64625;50.882;4.376;2023-05-17T12:51:16;4.38;;;1.55;;
37983;SDS011;64625;50.882;4.376;2023-05-17T12:53:43;7.93;;;2.47;;
37983;SDS011;64625;50.882;4.376;2023-05-17T12:56:23;7.63;;;1.95;;
37983;SDS011;64625;50.882;4.376;2023-05-17T12:59:03;19.48;;;1.77;;
37983;SDS011;64625;50.882;4.376;2023-05-17T13:01:33;5.20;;;2.03;;
37983;SDS011;64625;50.882;4.376;2023-05-17T13:04:10;16.90;;;2.97;;
37983;SDS011;64625;50.882;4.376;2023-05-17T13:06:43;8.90;;;2.45;;
37983;SDS011;64625;50.882;4.376;2023-05-17T13:09:14;8.43;;;1.92;;
37983;SDS011;64625;50.882;4.376;2023-05-17T13:17:07;9.40;;;2.33;;
37983;SDS011;64625;50.882;4.376;2023-05-17T13:19:34;8.52;;;1.95;;
37983;SDS011;64625;50.882;4.376;2023-05-17T13:22:01;34.28;;;4.80;;
37983;SDS011;64625;50.882;4.376;2023-05-17T13:24:29;17.75;;;3.35;;
37983;SDS011;64625;50.882;4.376;2023-05-17T13:26:57;12.07;;;4.28;;
37983;SDS011;64625;50.882;4.376;2023-05-17T13:29:23;15.05;;;3.08;;
37983;SDS011;64625;50.882;4.376;2023-05-17T13:31:50;3.83;;;1.10;;
37983;SDS011;64625;50.882;4.376;2023-05-17T13:34:17;8.10;;;1.80;;
37983;SDS011;64625;50.882;4.376;2023-05-17T13:36:46;3.97;;;1.15;;
37983;SDS011;64625;50.882;4.376;2023-05-17T13:39:12;10.90;;;3.55;;
37983;SDS011;64625;50.882;4.376;2023-05-17T13:41:38;11.73;;;3.70;;
37983;SDS011;64625;50.882;4.376;2023-05-17T13:44:05;11.00;;;2.33;;
37983;SDS011;64625;50.882;4.376;2023-05-17T13:46:31;6.63;;;1.92;;
37983;SDS011;64625;50.882;4.376;2023-05-17T13:48:57;2.10;;;1.33;;
37983;SDS011;64625;50.882;4.376;2023-05-17T13:51:23;8.98;;;2.63;;
37983;SDS011;64625;50.882;4.376;2023-05-17T13:53:49;8.75;;;2.33;;
37983;SDS011;64625;50.882;4.376;2023-05-17T13:56:16;5.68;;;2.75;;
37983;SDS011;64625;50.882;4.376;2023-05-17T13:58:42;12.73;;;2.30;;
37983;SDS011;64625;50.882;4.376;2023-05-17T14:01:08;8.52;;;2.58;;
37983;SDS011;64625;50.882;4.376;2023-05-17T14:03:34;11.18;;;2.00;;
37983;SDS011;64625;50.882;4.376;2023-05-17T14:06:01;10.18;;;2.17;;
37983;SDS011;64625;50.882;4.376;2023-05-17T14:08:30;5.60;;;1.88;;
37983;SDS011;64625;50.882;4.376;2023-05-17T14:10:56;6.43;;;2.03;;
37983;SDS011;64625;50.882;4.376;2023-05-17T14:13:22;6.80;;;1.90;;
37983;SDS011;64625;50.882;4.376;2023-05-17T14:15:48;9.43;;;1.63;;
37983;SDS011;64625;50.882;4.376;2023-05-17T14:18:14;3.40;;;1.80;;
37983;SDS011;64625;50.882;4.376;2023-05-17T14:20:40;13.45;;;2.25;;
37983;SDS011;64625;50.882;4.376;2023-05-17T14:23:06;6.95;;;2.22;;
37983;SDS011;64625;50.882;4.376;2023-05-17T14:25:31;8.38;;;1.65;;
37983;SDS011;64625;50.882;4.376;2023-05-17T14:27:57;11.82;;;2.50;;
37983;SDS011;64625;50.882;4.376;2023-05-17T14:30:23;3.80;;;1.50;;
37983;SDS011;64625;50.882;4.376;2023-05-17T14:32:49;11.93;;;2.20;;
37983;SDS011;64625;50.882;4.376;2023-05-17T14:35:15;5.50;;;1.58;;
37983;SDS011;64625;50.882;4.376;2023-05-17T14:37:41;13.05;;;2.25;;
37983;SDS011;64625;50.882;4.376;2023-05-17T14:40:08;6.35;;;1.73;;
37983;SDS011;64625;50.882;4.376;2023-05-17T14:42:34;8.52;;;2.58;;
37983;SDS011;64625;50.882;4.376;2023-05-17T14:45:00;4.05;;;1.70;;
37983;SDS011;64625;50.882;4.376;2023-05-17T14:47:26;5.07;;;1.80;;
37983;SDS011;64625;50.882;4.376;2023-05-17T14:49:52;8.48;;;2.40;;
37983;SDS011;64625;50.882;4.376;2023-05-17T14:52:18;5.72;;;1.65;;
37983;SDS011;64625;50.882;4.376;2023-05-17T14:54:44;12.15;;;2.25;;
37983;SDS011;64625;50.882;4.376;2023-05-17T14:57:09;12.80;;;1.75;;
37983;SDS011;64625;50.882;4.376;2023-05-17T14:59:36;10.27;;;1.80;;
37983;SDS011;64625;50.882;4.376;2023-05-17T15:02:02;11.77;;;1.95;;
37983;SDS011;64625;50.882;4.376;2023-05-17T15:04:29;8.00;;;1.92;;
37983;SDS011;64625;50.882;4.376;2023-05-17T15:06:56;4.07;;;1.88;;